sensor_id;sensor_type;location;lat;lon;timestamp;pressure;altitude;pressure_sealevel;temperature;humidity
72794;BME280;63436;26.334;50.194;2023-03-13T00:01:42;101196.79;;;27.06;35.13
72794;BME280;63436;26.334;50.194;2023-03-13T00:04:05;101190.92;;;26.88;35.85
72794;BME280;63436;26.334;50.194;2023-03-13T00:06:33;101186.71;;;26.80;36.58
72794;BME280;63436;26.334;50.194;2023-03-13T00:08:56;101184.26;;;26.36;36.99
72794;BME280;63436;26.334;50.194;2023-03-13T00:11:22;101183.20;;;26.27;37.26
72794;BME280;63436;26.334;50.194;2023-03-13T00:13:47;101181.00;;;24.06;39.80
72794;BME280;63436;26.334;50.194;2023-03-13T00:16:15;101179.98;;;26.37;36.96
72794;BME280;63436;26.334;50.194;2023-03-13T00:18:38;101174.18;;;26.44;37.04
72794;BME280;63436;26.334;50.194;2023-03-13T00:21:04;101168.54;;;26.91;36.42
72794;BME280;63436;26.334;50.194;2023-03-13T00:23:29;101168.75;;;26.53;36.69
72794;BME280;63436;26.334;50.194;2023-03-13T00:25:57;101163.80;;;26.22;36.98
72794;BME280;63436;26.334;50.194;2023-03-13T00:28:19;101158.12;;;26.87;36.72
72794;BME280;63436;26.334;50.194;2023-03-13T00:30:44;101156.61;;;27.14;36.53
72794;BME280;63436;26.334;50.194;2023-03-13T00:33:09;101156.56;;;26.76;36.90
72794;BME280;63436;26.334;50.194;2023-03-13T00:35:35;101155.32;;;26.25;37.49
72794;BME280;63436;26.334;50.194;2023-03-13T00:38:00;101153.70;;;26.77;37.21
72794;BME280;63436;26.334;50.194;2023-03-13T00:40:26;101163.62;;;26.73;37.42
72794;BME280;63436;26.334;50.194;2023-03-13T00:42:51;101163.61;;;25.31;39.21
72794;BME280;63436;26.334;50.194;2023-03-13T00:45:17;101170.33;;;26.63;37.57
72794;BME280;63436;26.334;50.194;2023-03-13T00:47:42;101171.04;;;26.73;37.37
72794;BME280;63436;26.334;50.194;2023-03-13T00:50:08;101166.91;;;27.61;35.99
72794;BME280;63436;26.334;50.194;2023-03-13T00:52:33;101160.74;;;26.89;37.32
72794;BME280;63436;26.334;50.194;2023-03-13T00:54:58;101154.49;;;26.71;37.51
72794;BME280;63436;26.334;50.194;2023-03-13T00:57:24;101150.15;;;25.68;38.89
72794;BME280;63436;26.334;50.194;2023-03-13T00:59:50;101151.75;;;26.09;38.48
72794;BME280;63436;26.334;50.194;2023-03-13T01:02:15;101158.40;;;26.40;38.00
72794;BME280;63436;26.334;50.194;2023-03-13T01:04:41;101166.83;;;26.40;38.53
72794;BME280;63436;26.334;50.194;2023-03-13T01:07:06;101176.57;;;26.93;37.99
72794;BME280;63436;26.334;50.194;2023-03-13T01:09:32;101185.36;;;25.23;40.56
72794;BME280;63436;26.334;50.194;2023-03-13T01:11:58;101190.75;;;29.25;35.58
72794;BME280;63436;26.334;50.194;2023-03-13T01:14:23;101186.62;;;30.02;34.45
72794;BME280;63436;26.334;50.194;2023-03-13T01:16:49;101190.61;;;29.33;35.08
72794;BME280;63436;26.334;50.194;2023-03-13T01:19:16;101192.78;;;28.93;35.73
72794;BME280;63436;26.334;50.194;2023-03-13T01:21:42;101181.84;;;28.41;36.65
72794;BME280;63436;26.334;50.194;2023-03-13T01:24:07;101174.81;;;28.60;36.45
72794;BME280;63436;26.334;50.194;2023-03-13T01:26:32;101162.49;;;28.20;36.69
72794;BME280;63436;26.334;50.194;2023-03-13T01:28:57;101157.45;;;27.72;37.19
72794;BME280;63436;26.334;50.194;2023-03-13T01:31:24;101172.33;;;27.07;37.18
72794;BME280;63436;26.334;50.194;2023-03-13T01:33:49;101200.74;;;28.17;36.34
72794;BME280;63436;26.334;50.194;2023-03-13T01:36:13;101223.08;;;27.70;36.80
72794;BME280;63436;26.334;50.194;2023-03-13T01:38:38;101234.15;;;26.26;39.35
72794;BME280;63436;26.334;50.194;2023-03-13T01:41:05;101234.21;;;26.36;39.55
72794;BME280;63436;26.334;50.194;2023-03-13T01:43:34;101245.17;;;26.51;40.48
72794;BME280;63436;26.334;50.194;2023-03-13T01:46:03;101252.01;;;26.24;41.02
72794;BME280;63436;26.334;50.194;2023-03-13T01:48:21;101250.41;;;26.11;41.37
72794;BME280;63436;26.334;50.194;2023-03-13T01:50:45;101237.71;;;25.85;42.15
72794;BME280;63436;26.334;50.194;2023-03-13T01:53:10;101254.42;;;25.40;43.07
72794;BME280;63436;26.334;50.194;2023-03-13T01:55:35;101266.87;;;25.10;44.15
72794;BME280;63436;26.334;50.194;2023-03-13T01:58:01;101273.79;;;26.20;42.18
72794;BME280;63436;26.334;50.194;2023-03-13T02:00:30;101273.77;;;25.92;43.16
72794;BME280;63436;26.334;50.194;2023-03-13T02:02:54;101279.64;;;26.10;42.81
72794;BME280;63436;26.334;50.194;2023-03-13T02:05:21;101287.76;;;26.12;42.70
72794;BME280;63436;26.334;50.194;2023-03-13T02:07:45;101285.23;;;25.66;43.31
72794;BME280;63436;26.334;50.194;2023-03-13T02:10:10;101288.80;;;26.58;41.96
72794;BME280;63436;26.334;50.194;2023-03-13T02:12:36;101300.86;;;27.03;40.32
72794;BME280;63436;26.334;50.194;2023-03-13T02:15:03;101309.57;;;27.23;41.07
72794;BME280;63436;26.334;50.194;2023-03-13T02:17:26;101313.79;;;26.81;42.05
72794;BME280;63436;26.334;50.194;2023-03-13T02:19:51;101330.36;;;26.23;43.26
72794;BME280;63436;26.334;50.194;2023-03-13T02:22:22;101350.59;;;25.92;43.50
72794;BME280;63436;26.334;50.194;2023-03-13T02:24:47;101359.14;;;25.97;43.88
72794;BME280;63436;26.334;50.194;2023-03-13T02:27:07;101361.09;;;25.77;43.81
72794;BME280;63436;26.334;50.194;2023-03-13T02:29:33;101363.68;;;25.27;44.48
72794;BME280;63436;26.334;50.194;2023-03-13T02:31:57;101358.31;;;25.95;43.80
72794;BME280;63436;26.334;50.194;2023-03-13T02:34:27;101362.63;;;25.67;44.80
72794;BME280;63436;26.334;50.194;2023-03-13T02:36:49;101354.40;;;25.47;44.64
72794;BME280;63436;26.334;50.194;2023-03-13T02:39:17;101353.53;;;25.22;45.39
72794;BME280;63436;26.334;50.194;2023-03-13T02:41:40;101361.49;;;25.86;43.85
72794;BME280;63436;26.334;50.194;2023-03-13T02:44:05;101352.13;;;26.13;43.68
72794;BME280;63436;26.334;50.194;2023-03-13T02:46:30;101357.42;;;25.71;44.64
72794;BME280;63436;26.334;50.194;2023-03-13T02:48:56;101363.89;;;25.90;44.51
72794;BME280;63436;26.334;50.194;2023-03-13T02:51:26;101374.60;;;25.63;44.89
72794;BME280;63436;26.334;50.194;2023-03-13T02:53:49;101379.01;;;26.41;44.09
72794;BME280;63436;26.334;50.194;2023-03-13T02:56:14;101381.57;;;26.15;44.24
72794;BME280;63436;26.334;50.194;2023-03-13T02:58:40;101379.15;;;25.85;44.84
72794;BME280;63436;26.334;50.194;2023-03-13T03:01:02;101367.51;;;26.03;44.55
72794;BME280;63436;26.334;50.194;2023-03-13T03:03:27;101363.74;;;25.86;44.81
72794;BME280;63436;26.334;50.194;2023-03-13T03:05:53;101365.92;;;25.95;45.07
72794;BME280;63436;26.334;50.194;2023-03-13T03:08:18;101374.20;;;26.19;43.67
72794;BME280;63436;26.334;50.194;2023-03-13T03:10:43;101369.62;;;26.09;44.09
72794;BME280;63436;26.334;50.194;2023-03-13T03:13:09;101371.91;;;26.28;44.11
72794;BME280;63436;26.334;50.194;2023-03-13T03:15:34;101373.37;;;26.30;43.75
72794;BME280;63436;26.334;50.194;2023-03-13T03:18:00;101373.50;;;25.81;44.03
72794;BME280;63436;26.334;50.194;2023-03-13T03:20:24;101374.04;;;26.12;44.69
72794;BME280;63436;26.334;50.194;2023-03-13T03:22:50;101379.80;;;26.02;44.67
72794;BME280;63436;26.334;50.194;2023-03-13T03:25:15;101391.94;;;26.23;43.52
72794;BME280;63436;26.334;50.194;2023-03-13T03:27:41;101399.05;;;26.82;42.99
72794;BME280;63436;26.334;50.194;2023-03-13T03:30:08;101405.17;;;26.24;44.21
72794;BME280;63436;26.334;50.194;2023-03-13T03:32:32;101412.77;;;25.52;44.50
72794;BME280;63436;26.334;50.194;2023-03-13T03:34:57;101426.58;;;26.07;43.88
72794;BME280;63436;26.334;50.194;2023-03-13T03:37:22;101440.46;;;26.59;43.21
72794;BME280;63436;26.334;50.194;2023-03-13T03:39:48;101448.54;;;26.01;44.16
72794;BME280;63436;26.334;50.194;2023-03-13T03:42:14;101454.56;;;26.13;44.32
72794;BME280;63436;26.334;50.194;2023-03-13T03:44:40;101455.50;;;25.44;45.14
72794;BME280;63436;26.334;50.194;2023-03-13T03:47:05;101451.58;;;25.85;44.46
72794;BME280;63436;26.334;50.194;2023-03-13T03:49:30;101453.49;;;25.44;46.17
72794;BME280;63436;26.334;50.194;2023-03-13T03:51:56;101447.92;;;24.08;48.41
72794;BME280;63436;26.334;50.194;2023-03-13T03:54:21;101454.40;;;25.10;47.23
72794;BME280;63436;26.334;50.194;2023-03-13T03:56:47;101459.97;;;25.71;46.56
72794;BME280;63436;26.334;50.194;2023-03-13T03:59:13;101470.50;;;26.45;45.58
72794;BME280;63436;26.334;50.194;2023-03-13T04:01:38;101486.62;;;26.13;46.45
72794;BME280;63436;26.334;50.194;2023-03-13T04:04:04;101496.97;;;25.66;48.33
72794;BME280;63436;26.334;50.194;2023-03-13T04:06:30;101502.01;;;25.90;48.15
72794;BME280;63436;26.334;50.194;2023-03-13T04:08:54;101496.49;;;25.77;47.61
72794;BME280;63436;26.334;50.194;2023-03-13T04:11:20;101495.06;;;25.56;47.70
72794;BME280;63436;26.334;50.194;2023-03-13T04:13:45;101488.90;;;25.46;46.51
72794;BME280;63436;26.334;50.194;2023-03-13T04:16:10;101494.68;;;25.47;47.29
72794;BME280;63436;26.334;50.194;2023-03-13T04:18:36;101501.30;;;26.29;46.84
72794;BME280;63436;26.334;50.194;2023-03-13T04:21:02;101497.67;;;25.62;47.21
72794;BME280;63436;26.334;50.194;2023-03-13T04:23:26;101503.27;;;25.43;47.85
72794;BME280;63436;26.334;50.194;2023-03-13T04:25:52;101515.26;;;25.49;47.85
72794;BME280;63436;26.334;50.194;2023-03-13T04:28:18;101524.64;;;25.52;47.91
72794;BME280;63436;26.334;50.194;2023-03-13T04:30:43;101519.81;;;26.06;46.82
72794;BME280;63436;26.334;50.194;2023-03-13T04:33:09;101522.78;;;25.00;48.87
72794;BME280;63436;26.334;50.194;2023-03-13T04:35:34;101527.71;;;25.92;46.96
72794;BME280;63436;26.334;50.194;2023-03-13T04:38:00;101529.05;;;24.23;50.32
72794;BME280;63436;26.334;50.194;2023-03-13T04:40:25;101524.60;;;25.28;48.06
72794;BME280;63436;26.334;50.194;2023-03-13T04:42:50;101529.05;;;25.77;46.84
72794;BME280;63436;26.334;50.194;2023-03-13T04:45:16;101544.69;;;25.00;48.17
72794;BME280;63436;26.334;50.194;2023-03-13T04:47:42;101559.18;;;25.41;46.90
72794;BME280;63436;26.334;50.194;2023-03-13T04:50:09;101557.42;;;25.36;46.24
72794;BME280;63436;26.334;50.194;2023-03-13T04:52:34;101550.62;;;26.27;45.97
72794;BME280;63436;26.334;50.194;2023-03-13T04:54:59;101549.03;;;25.79;47.20
72794;BME280;63436;26.334;50.194;2023-03-13T04:57:24;101557.12;;;26.22;46.15
72794;BME280;63436;26.334;50.194;2023-03-13T04:59:49;101546.35;;;25.39;47.81
72794;BME280;63436;26.334;50.194;2023-03-13T05:02:15;101540.02;;;25.92;46.38
72794;BME280;63436;26.334;50.194;2023-03-13T05:04:40;101535.41;;;25.43;46.74
72794;BME280;63436;26.334;50.194;2023-03-13T05:07:06;101530.94;;;24.20;47.76
72794;BME280;63436;26.334;50.194;2023-03-13T05:09:31;101531.41;;;24.23;47.74
72794;BME280;63436;26.334;50.194;2023-03-13T05:11:57;101525.69;;;25.05;46.06
72794;BME280;63436;26.334;50.194;2023-03-13T05:14:22;101526.78;;;23.81;47.80
72794;BME280;63436;26.334;50.194;2023-03-13T05:16:47;101527.98;;;24.41;46.55
72794;BME280;63436;26.334;50.194;2023-03-13T05:19:12;101532.75;;;24.70;45.02
72794;BME280;63436;26.334;50.194;2023-03-13T05:21:38;101521.97;;;25.16;44.57
72794;BME280;63436;26.334;50.194;2023-03-13T05:24:04;101515.62;;;23.73;46.80
72794;BME280;63436;26.334;50.194;2023-03-13T05:26:29;101504.61;;;22.43;48.99
72794;BME280;63436;26.334;50.194;2023-03-13T05:28:55;101498.24;;;22.77;49.03
72794;BME280;63436;26.334;50.194;2023-03-13T05:31:19;101493.17;;;22.91;48.69
72794;BME280;63436;26.334;50.194;2023-03-13T05:33:45;101475.81;;;22.19;50.84
72794;BME280;63436;26.334;50.194;2023-03-13T05:36:10;101471.00;;;20.78;52.89
72794;BME280;63436;26.334;50.194;2023-03-13T05:38:36;101458.28;;;22.14;51.73
72794;BME280;63436;26.334;50.194;2023-03-13T05:41:02;101453.67;;;21.94;52.61
72794;BME280;63436;26.334;50.194;2023-03-13T05:43:27;101479.63;;;22.02;53.42
72794;BME280;63436;26.334;50.194;2023-03-13T05:45:52;101511.40;;;23.21;49.98
72794;BME280;63436;26.334;50.194;2023-03-13T05:48:18;101537.18;;;22.72;50.60
72794;BME280;63436;26.334;50.194;2023-03-13T05:50:43;101530.33;;;23.04;50.32
72794;BME280;63436;26.334;50.194;2023-03-13T05:53:08;101520.55;;;24.99;46.51
72794;BME280;63436;26.334;50.194;2023-03-13T05:55:33;101513.67;;;25.01;46.47
72794;BME280;63436;26.334;50.194;2023-03-13T05:57:59;101504.04;;;22.45;50.14
72794;BME280;63436;26.334;50.194;2023-03-13T06:00:25;101492.86;;;22.60;49.88
72794;BME280;63436;26.334;50.194;2023-03-13T06:02:51;101479.82;;;22.32;50.72
72794;BME280;63436;26.334;50.194;2023-03-13T06:05:16;101474.37;;;23.23;48.80
72794;BME280;63436;26.334;50.194;2023-03-13T06:07:41;101483.83;;;23.78;48.31
72794;BME280;63436;26.334;50.194;2023-03-13T06:10:07;101494.74;;;23.50;48.95
72794;BME280;63436;26.334;50.194;2023-03-13T06:12:32;101500.54;;;23.59;49.74
72794;BME280;63436;26.334;50.194;2023-03-13T06:14:58;101502.86;;;24.84;47.05
72794;BME280;63436;26.334;50.194;2023-03-13T06:17:22;101518.14;;;23.89;48.03
72794;BME280;63436;26.334;50.194;2023-03-13T06:19:48;101522.09;;;24.21;47.54
72794;BME280;63436;26.334;50.194;2023-03-13T06:22:15;101517.01;;;25.61;45.44
72794;BME280;63436;26.334;50.194;2023-03-13T06:24:39;101513.92;;;25.31;45.08
72794;BME280;63436;26.334;50.194;2023-03-13T06:27:05;101520.34;;;25.91;44.53
72794;BME280;63436;26.334;50.194;2023-03-13T06:29:30;101511.70;;;25.52;44.88
72794;BME280;63436;26.334;50.194;2023-03-13T06:31:55;101492.29;;;25.21;45.91
72794;BME280;63436;26.334;50.194;2023-03-13T06:34:21;101491.29;;;25.19;46.39
72794;BME280;63436;26.334;50.194;2023-03-13T06:36:46;101486.04;;;25.82;45.47
72794;BME280;63436;26.334;50.194;2023-03-13T06:39:12;101470.82;;;25.28;45.76
72794;BME280;63436;26.334;50.194;2023-03-13T06:41:37;101463.66;;;24.99;46.42
72794;BME280;63436;26.334;50.194;2023-03-13T06:44:03;101454.19;;;25.34;46.16
72794;BME280;63436;26.334;50.194;2023-03-13T06:46:28;101450.43;;;24.50;47.11
72794;BME280;63436;26.334;50.194;2023-03-13T06:48:54;101462.65;;;25.29;45.86
72794;BME280;63436;26.334;50.194;2023-03-13T06:51:20;101485.06;;;24.94;46.79
72794;BME280;63436;26.334;50.194;2023-03-13T06:53:51;101496.29;;;24.95;46.70
72794;BME280;63436;26.334;50.194;2023-03-13T06:56:17;101518.45;;;25.67;45.09
72794;BME280;63436;26.334;50.194;2023-03-13T06:58:36;101522.69;;;25.90;45.86
72794;BME280;63436;26.334;50.194;2023-03-13T07:01:16;101502.79;;;26.00;46.04
72794;BME280;63436;26.334;50.194;2023-03-13T07:03:27;101512.90;;;25.70;46.77
72794;BME280;63436;26.334;50.194;2023-03-13T07:05:56;101510.81;;;26.08;45.45
72794;BME280;63436;26.334;50.194;2023-03-13T07:08:17;101509.06;;;25.83;45.45
72794;BME280;63436;26.334;50.194;2023-03-13T07:10:43;101495.85;;;25.93;45.26
72794;BME280;63436;26.334;50.194;2023-03-13T07:13:09;101490.85;;;25.23;46.18
72794;BME280;63436;26.334;50.194;2023-03-13T07:15:34;101496.02;;;25.47;45.50
72794;BME280;63436;26.334;50.194;2023-03-13T07:18:00;101483.69;;;25.71;44.88
72794;BME280;63436;26.334;50.194;2023-03-13T07:20:26;101465.05;;;24.67;46.95
72794;BME280;63436;26.334;50.194;2023-03-13T07:22:51;101447.52;;;25.15;46.51
72794;BME280;63436;26.334;50.194;2023-03-13T07:25:17;101437.27;;;25.03;46.04
72794;BME280;63436;26.334;50.194;2023-03-13T07:27:42;101426.86;;;24.87;46.74
72794;BME280;63436;26.334;50.194;2023-03-13T07:30:08;101418.21;;;24.53;46.91
72794;BME280;63436;26.334;50.194;2023-03-13T07:32:32;101402.26;;;24.58;46.36
72794;BME280;63436;26.334;50.194;2023-03-13T07:34:57;101384.24;;;24.51;46.56
72794;BME280;63436;26.334;50.194;2023-03-13T07:37:22;101375.20;;;25.18;44.48
72794;BME280;63436;26.334;50.194;2023-03-13T07:39:47;101371.64;;;23.96;46.27
72794;BME280;63436;26.334;50.194;2023-03-13T07:42:13;101385.20;;;24.45;45.10
72794;BME280;63436;26.334;50.194;2023-03-13T07:44:38;101411.29;;;26.10;43.40
72794;BME280;63436;26.334;50.194;2023-03-13T07:47:04;101437.26;;;26.03;45.00
72794;BME280;63436;26.334;50.194;2023-03-13T07:49:29;101441.99;;;25.80;45.25
72794;BME280;63436;26.334;50.194;2023-03-13T07:51:59;101439.38;;;24.64;47.56
72794;BME280;63436;26.334;50.194;2023-03-13T07:54:20;101426.84;;;25.31;46.89
72794;BME280;63436;26.334;50.194;2023-03-13T07:56:45;101425.37;;;24.36;47.60
72794;BME280;63436;26.334;50.194;2023-03-13T07:59:11;101437.30;;;25.97;45.77
72794;BME280;63436;26.334;50.194;2023-03-13T08:01:36;101451.88;;;25.94;46.26
72794;BME280;63436;26.334;50.194;2023-03-13T08:04:01;101451.94;;;25.91;45.96
72794;BME280;63436;26.334;50.194;2023-03-13T08:06:29;101442.96;;;25.86;45.93
72794;BME280;63436;26.334;50.194;2023-03-13T08:08:55;101448.99;;;25.35;47.74
72794;BME280;63436;26.334;50.194;2023-03-13T08:11:19;101448.39;;;25.90;46.46
72794;BME280;63436;26.334;50.194;2023-03-13T08:13:43;101439.84;;;26.10;45.26
72794;BME280;63436;26.334;50.194;2023-03-13T08:16:09;101424.62;;;25.66;45.69
72794;BME280;63436;26.334;50.194;2023-03-13T08:18:34;101421.76;;;25.15;47.33
72794;BME280;63436;26.334;50.194;2023-03-13T08:21:02;101423.32;;;25.43;47.48
72794;BME280;63436;26.334;50.194;2023-03-13T08:23:24;101426.76;;;25.50;46.20
72794;BME280;63436;26.334;50.194;2023-03-13T08:25:50;101412.14;;;24.81;48.59
72794;BME280;63436;26.334;50.194;2023-03-13T08:28:16;101407.95;;;25.04;48.39
72794;BME280;63436;26.334;50.194;2023-03-13T08:30:41;101386.68;;;25.26;48.02
72794;BME280;63436;26.334;50.194;2023-03-13T08:33:07;101375.47;;;25.37;47.53
72794;BME280;63436;26.334;50.194;2023-03-13T08:35:32;101376.34;;;24.10;48.90
72794;BME280;63436;26.334;50.194;2023-03-13T08:37:57;101396.54;;;22.23;52.47
72794;BME280;63436;26.334;50.194;2023-03-13T08:40:23;101402.69;;;25.09;47.27
72794;BME280;63436;26.334;50.194;2023-03-13T08:42:48;101415.91;;;25.51;46.44
72794;BME280;63436;26.334;50.194;2023-03-13T08:45:14;101429.63;;;25.58;45.46
72794;BME280;63436;26.334;50.194;2023-03-13T08:47:39;101434.90;;;25.69;45.92
72794;BME280;63436;26.334;50.194;2023-03-13T08:50:14;101429.69;;;26.01;45.81
72794;BME280;63436;26.334;50.194;2023-03-13T08:52:39;101418.91;;;25.10;47.24
72794;BME280;63436;26.334;50.194;2023-03-13T08:54:55;101415.04;;;25.73;45.53
72794;BME280;63436;26.334;50.194;2023-03-13T08:57:22;101422.36;;;25.64;46.19
72794;BME280;63436;26.334;50.194;2023-03-13T08:59:46;101425.34;;;24.93;47.08
72794;BME280;63436;26.334;50.194;2023-03-13T09:02:11;101425.62;;;25.53;46.05
72794;BME280;63436;26.334;50.194;2023-03-13T09:04:36;101422.13;;;26.84;43.85
72794;BME280;63436;26.334;50.194;2023-03-13T09:07:02;101419.93;;;26.38;44.06
72794;BME280;63436;26.334;50.194;2023-03-13T09:09:27;101420.20;;;25.81;44.85
72794;BME280;63436;26.334;50.194;2023-03-13T09:11:57;101427.54;;;23.98;47.61
72794;BME280;63436;26.334;50.194;2023-03-13T09:14:18;101422.40;;;25.69;45.33
72794;BME280;63436;26.334;50.194;2023-03-13T09:16:44;101415.04;;;23.64;48.42
72794;BME280;63436;26.334;50.194;2023-03-13T09:19:11;101403.30;;;25.42;44.12
72794;BME280;63436;26.334;50.194;2023-03-13T09:40:26;101348.00;;;26.96;43.11
72794;BME280;63436;26.334;50.194;2023-03-13T11:42:47;101273.33;;;26.47;40.97
72794;BME280;63436;26.334;50.194;2023-03-13T11:45:02;101280.08;;;22.45;45.19
72794;BME280;63436;26.334;50.194;2023-03-13T11:47:35;101280.96;;;22.37;44.25
72794;BME280;63436;26.334;50.194;2023-03-13T11:50:05;101279.70;;;22.04;43.51
72794;BME280;63436;26.334;50.194;2023-03-13T11:52:23;101280.99;;;22.47;43.27
72794;BME280;63436;26.334;50.194;2023-03-13T11:54:57;101280.12;;;20.94;45.14
72794;BME280;63436;26.334;50.194;2023-03-13T11:57:09;101271.43;;;22.47;43.11
72794;BME280;63436;26.334;50.194;2023-03-13T11:59:37;101268.06;;;24.63;41.16
72794;BME280;63436;26.334;50.194;2023-03-13T12:02:01;101264.55;;;26.58;38.82
72794;BME280;63436;26.334;50.194;2023-03-13T12:04:25;101262.34;;;24.38;42.58
72794;BME280;63436;26.334;50.194;2023-03-13T12:06:52;101266.16;;;22.21;46.57
72794;BME280;63436;26.334;50.194;2023-03-13T12:09:16;101265.11;;;22.70;46.81
72794;BME280;63436;26.334;50.194;2023-03-13T12:11:40;101266.68;;;23.26;46.39
72794;BME280;63436;26.334;50.194;2023-03-13T12:14:05;101263.85;;;22.92;46.76
72794;BME280;63436;26.334;50.194;2023-03-13T12:16:38;101265.24;;;22.09;48.18
72794;BME280;63436;26.334;50.194;2023-03-13T12:18:55;101263.74;;;22.78;47.25
72794;BME280;63436;26.334;50.194;2023-03-13T12:21:22;101260.91;;;24.20;45.04
72794;BME280;63436;26.334;50.194;2023-03-13T12:23:51;101260.63;;;24.86;42.62
72794;BME280;63436;26.334;50.194;2023-03-13T12:26:13;101260.02;;;23.29;44.69
72794;BME280;63436;26.334;50.194;2023-03-13T12:28:40;101258.62;;;25.22;41.52
72794;BME280;63436;26.334;50.194;2023-03-13T12:31:08;101257.18;;;25.20;41.72
72794;BME280;63436;26.334;50.194;2023-03-13T12:33:30;101247.49;;;25.91;39.51
72794;BME280;63436;26.334;50.194;2023-03-13T12:35:59;101247.67;;;25.50;40.64
72794;BME280;63436;26.334;50.194;2023-03-13T12:38:22;101251.79;;;24.02;42.74
72794;BME280;63436;26.334;50.194;2023-03-13T12:40:49;101256.46;;;24.14;42.74
72794;BME280;63436;26.334;50.194;2023-03-13T12:43:13;101249.98;;;25.54;40.10
72794;BME280;63436;26.334;50.194;2023-03-13T12:45:37;101252.79;;;24.89;40.24
72794;BME280;63436;26.334;50.194;2023-03-13T12:48:20;101254.89;;;23.44;42.19
72794;BME280;63436;26.334;50.194;2023-03-13T12:50:33;101259.61;;;22.03;44.75
72794;BME280;63436;26.334;50.194;2023-03-13T12:53:06;101255.78;;;21.78;46.50
72794;BME280;63436;26.334;50.194;2023-03-13T12:55:28;101250.93;;;21.59;47.41
72794;BME280;63436;26.334;50.194;2023-03-13T13:00:14;101239.12;;;23.05;44.92
72794;BME280;63436;26.334;50.194;2023-03-13T13:02:32;101237.00;;;23.95;43.79
72794;BME280;63436;26.334;50.194;2023-03-13T13:04:59;101240.68;;;24.26;42.45
72794;BME280;63436;26.334;50.194;2023-03-13T13:07:24;101241.01;;;24.01;42.14
72794;BME280;63436;26.334;50.194;2023-03-13T13:09:59;101244.69;;;25.64;39.58
72794;BME280;63436;26.334;50.194;2023-03-13T13:12:18;101252.45;;;24.84;41.23
72794;BME280;63436;26.334;50.194;2023-03-13T13:17:14;101263.04;;;23.33;43.18
72794;BME280;63436;26.334;50.194;2023-03-13T13:19:43;101272.25;;;22.76;45.09
72794;BME280;63436;26.334;50.194;2023-03-13T13:24:39;101268.05;;;22.79;45.76
72794;BME280;63436;26.334;50.194;2023-03-13T13:26:48;101267.50;;;23.68;44.22
72794;BME280;63436;26.334;50.194;2023-03-13T13:31:53;101265.41;;;24.23;43.35
72794;BME280;63436;26.334;50.194;2023-03-13T13:34:01;101264.25;;;24.48;43.38
72794;BME280;63436;26.334;50.194;2023-03-13T13:36:29;101268.76;;;23.74;44.55
72794;BME280;63436;26.334;50.194;2023-03-13T13:38:53;101271.19;;;24.82;43.58
72794;BME280;63436;26.334;50.194;2023-03-13T13:43:45;101267.84;;;24.07;44.40
72794;BME280;63436;26.334;50.194;2023-03-13T13:46:20;101268.95;;;24.93;43.12
72794;BME280;63436;26.334;50.194;2023-03-13T13:48:36;101267.43;;;24.13;44.24
72794;BME280;63436;26.334;50.194;2023-03-13T13:51:19;101265.33;;;25.31;43.01
72794;BME280;63436;26.334;50.194;2023-03-13T13:53:31;101272.77;;;22.36;47.02
72794;BME280;63436;26.334;50.194;2023-03-13T13:55:51;101267.80;;;22.53;46.97
72794;BME280;63436;26.334;50.194;2023-03-13T13:58:21;101269.89;;;22.22;46.96
72794;BME280;63436;26.334;50.194;2023-03-13T14:00:44;101266.74;;;23.69;44.31
72794;BME280;63436;26.334;50.194;2023-03-13T14:03:18;101265.18;;;22.89;45.46
72794;BME280;63436;26.334;50.194;2023-03-13T14:05:33;101264.13;;;24.60;42.77
72794;BME280;63436;26.334;50.194;2023-03-13T14:08:02;101270.70;;;24.19;43.07
72794;BME280;63436;26.334;50.194;2023-03-13T14:10:35;101276.98;;;24.52;42.68
72794;BME280;63436;26.334;50.194;2023-03-13T14:12:52;101281.26;;;23.56;43.91
72794;BME280;63436;26.334;50.194;2023-03-13T14:15:17;101283.52;;;24.24;43.17
72794;BME280;63436;26.334;50.194;2023-03-13T14:17:42;101283.11;;;23.97;42.94
72794;BME280;63436;26.334;50.194;2023-03-13T14:20:17;101285.07;;;25.25;41.09
72794;BME280;63436;26.334;50.194;2023-03-13T14:22:44;101288.54;;;24.78;41.67
72794;BME280;63436;26.334;50.194;2023-03-13T14:24:57;101293.54;;;24.32;42.97
72794;BME280;63436;26.334;50.194;2023-03-13T14:27:21;101297.42;;;22.51;45.85
72794;BME280;63436;26.334;50.194;2023-03-13T14:30:00;101302.30;;;23.65;44.84
72794;BME280;63436;26.334;50.194;2023-03-13T14:32:17;101305.63;;;23.89;44.39
72794;BME280;63436;26.334;50.194;2023-03-13T14:34:38;101312.68;;;22.62;46.68
72794;BME280;63436;26.334;50.194;2023-03-13T14:39:41;101312.31;;;23.93;43.82
72794;BME280;63436;26.334;50.194;2023-03-13T14:41:55;101321.44;;;22.56;46.91
72794;BME280;63436;26.334;50.194;2023-03-13T14:44:23;101318.39;;;24.16;44.01
72794;BME280;63436;26.334;50.194;2023-03-13T14:46:46;101319.96;;;23.62;45.67
72794;BME280;63436;26.334;50.194;2023-03-13T14:49:17;101315.69;;;23.12;47.32
72794;BME280;63436;26.334;50.194;2023-03-13T14:51:38;101313.39;;;23.28;47.46
72794;BME280;63436;26.334;50.194;2023-03-13T14:54:02;101317.51;;;23.06;48.58
72794;BME280;63436;26.334;50.194;2023-03-13T14:56:33;101323.89;;;21.31;52.91
72794;BME280;63436;26.334;50.194;2023-03-13T14:58:52;101321.99;;;23.21;49.84
72794;BME280;63436;26.334;50.194;2023-03-13T15:01:24;101313.55;;;23.79;48.00
72794;BME280;63436;26.334;50.194;2023-03-13T15:03:44;101320.08;;;22.14;51.45